createdAt,value
2022-11-12T00:00:49.750Z,6.30
2022-11-12T00:03:38.885Z,6.30
2022-11-12T00:06:25.492Z,6.20
2022-11-12T00:09:11.961Z,6.20
2022-11-12T00:11:58.553Z,6.20
2022-11-12T00:14:44.847Z,6.20
2022-11-12T00:17:31.255Z,6.20
2022-11-12T00:20:19.141Z,6.20
2022-11-12T00:23:05.836Z,6.20
2022-11-12T00:25:59.685Z,6.20
2022-11-12T00:28:46.316Z,6.10
2022-11-12T00:31:34.404Z,6.10
2022-11-12T00:34:21.167Z,6.10
2022-11-12T00:37:09.101Z,6.10
2022-11-12T00:39:55.621Z,6.00
2022-11-12T00:42:42.101Z,6.00
2022-11-12T00:45:28.611Z,6.10
2022-11-12T00:48:14.896Z,6.00
2022-11-12T00:51:03.003Z,6.00
2022-11-12T00:53:51.343Z,6.00
2022-11-12T00:56:37.905Z,6.00
2022-11-12T00:59:24.323Z,5.90
2022-11-12T01:02:10.851Z,6.00
2022-11-12T01:04:57.170Z,5.90
2022-11-12T01:07:43.655Z,5.80
2022-11-12T01:10:31.376Z,5.80
2022-11-12T01:13:17.538Z,5.80
2022-11-12T01:16:07.645Z,5.80
2022-11-12T01:18:55.860Z,5.80
2022-11-12T01:21:44.985Z,5.80
2022-11-12T01:24:31.314Z,5.80
2022-11-12T01:27:19.036Z,5.70
2022-11-12T01:30:06.677Z,5.70
2022-11-12T01:32:53.043Z,5.70
2022-11-12T01:35:39.577Z,5.70
2022-11-12T01:38:26.126Z,5.70
2022-11-12T01:41:15.231Z,5.70
2022-11-12T01:44:11.049Z,5.70
2022-11-12T01:47:03.886Z,5.70
2022-11-12T01:49:56.283Z,5.70
2022-11-12T01:52:48.020Z,5.60
2022-11-12T01:55:38.410Z,5.60
2022-11-12T01:58:29.974Z,5.60
2022-11-12T02:01:18.034Z,5.60
2022-11-12T02:04:04.564Z,5.60
2022-11-12T02:06:53.340Z,5.60
2022-11-12T02:09:39.733Z,5.60
2022-11-12T02:12:48.726Z,5.60
2022-11-12T02:15:35.857Z,5.60
2022-11-12T02:18:24.184Z,5.60
2022-11-12T02:21:11.142Z,5.60
2022-11-12T02:24:04.761Z,5.60
2022-11-12T02:26:54.531Z,5.60
2022-11-12T02:29:46.232Z,5.70
2022-11-12T02:32:32.908Z,5.60
2022-11-12T02:35:19.288Z,5.60
2022-11-12T02:38:06.598Z,5.60
2022-11-12T02:40:54.732Z,5.60
2022-11-12T02:43:41.163Z,5.60
2022-11-12T02:46:27.402Z,5.60
2022-11-12T02:49:13.806Z,5.60
2022-11-12T02:52:00.034Z,5.60
2022-11-12T02:54:46.228Z,5.60
2022-11-12T02:57:34.056Z,5.50
2022-11-12T03:00:20.625Z,5.50
2022-11-12T03:03:07.188Z,5.40
2022-11-12T03:05:58.088Z,5.40
2022-11-12T03:08:44.602Z,5.40
2022-11-12T03:11:30.956Z,5.40
2022-11-12T03:14:18.694Z,5.30
2022-11-12T03:17:05.351Z,5.40
2022-11-12T03:19:51.841Z,5.40
2022-11-12T03:22:38.584Z,5.30
2022-11-12T03:25:25.660Z,5.30
2022-11-12T03:28:14.006Z,5.30
2022-11-12T03:31:01.778Z,5.30
2022-11-12T03:33:48.404Z,5.30
2022-11-12T03:36:34.775Z,5.30
2022-11-12T03:39:21.213Z,5.30
2022-11-12T03:42:07.749Z,5.30
2022-11-12T03:44:54.351Z,5.30
2022-11-12T03:47:44.221Z,5.20
2022-11-12T03:50:31.527Z,5.20
2022-11-12T03:53:18.221Z,5.20
2022-11-12T03:56:04.601Z,5.20
2022-11-12T03:58:50.843Z,5.20
2022-11-12T04:01:37.203Z,5.20
2022-11-12T04:04:44.788Z,5.20
2022-11-12T04:07:48.641Z,5.20
2022-11-12T04:10:36.177Z,5.20
2022-11-12T04:13:28.489Z,5.20
2022-11-12T04:16:34.363Z,5.20
2022-11-12T04:19:38.263Z,5.20
2022-11-12T04:22:26.461Z,5.20
2022-11-12T04:25:30.198Z,5.20
2022-11-12T04:28:16.808Z,5.20
2022-11-12T04:31:02.217Z,5.20
2022-11-12T04:33:48.533Z,5.20
2022-11-12T04:36:34.691Z,5.10
2022-11-12T04:39:22.538Z,5.10
2022-11-12T04:42:27.522Z,5.10
2022-11-12T04:45:14.227Z,5.10
2022-11-12T04:48:02.393Z,5.10
2022-11-12T04:50:51.470Z,5.10
2022-11-12T04:53:37.764Z,5.10
2022-11-12T04:56:25.324Z,5.10
2022-11-12T04:59:11.541Z,5.10
2022-11-12T05:01:57.929Z,5.10
2022-11-12T05:04:44.329Z,5.10
2022-11-12T05:07:33.284Z,5.10
2022-11-12T05:10:19.768Z,5.10
2022-11-12T05:13:07.605Z,5.10
2022-11-12T05:15:54.288Z,5.10
2022-11-12T05:18:40.734Z,5.10
2022-11-12T05:21:44.384Z,5.10
2022-11-12T05:24:41.531Z,5.10
2022-11-12T05:27:28.511Z,5.00
2022-11-12T05:30:16.474Z,5.00
2022-11-12T05:33:03.071Z,5.00
2022-11-12T05:35:49.416Z,5.00
2022-11-12T05:38:38.086Z,4.90
2022-11-12T05:41:24.392Z,4.90
2022-11-12T05:44:11.048Z,4.90
2022-11-12T05:46:58.926Z,4.90
2022-11-12T05:49:45.574Z,4.90
2022-11-12T05:52:31.944Z,4.90
2022-11-12T05:55:18.317Z,4.90
2022-11-12T05:58:06.526Z,4.90
2022-11-12T06:00:52.913Z,4.90
2022-11-12T06:03:40.640Z,4.90
2022-11-12T06:06:27.043Z,4.80
2022-11-12T06:09:13.533Z,4.80
2022-11-12T06:11:59.943Z,4.70
2022-11-12T06:14:46.317Z,4.80
2022-11-12T06:17:32.679Z,4.70
2022-11-12T06:20:20.434Z,4.70
2022-11-12T06:23:06.871Z,4.70
2022-11-12T06:25:53.459Z,4.70
2022-11-12T06:28:40.526Z,4.70
2022-11-12T06:31:27.104Z,4.70
2022-11-12T06:34:13.459Z,4.70
2022-11-12T06:37:01.053Z,4.70
2022-11-12T06:39:47.472Z,4.70
2022-11-12T06:42:33.873Z,4.70
2022-11-12T06:45:20.061Z,4.70
2022-11-12T06:48:06.540Z,4.70
2022-11-12T06:50:52.915Z,4.80
2022-11-12T06:53:40.673Z,4.80
2022-11-12T06:56:27.173Z,4.80
2022-11-12T06:59:13.594Z,4.80
2022-11-12T07:01:59.895Z,4.80
2022-11-12T07:04:46.070Z,4.80
2022-11-12T07:07:32.414Z,4.80
2022-11-12T07:10:20.304Z,4.80
2022-11-12T07:13:06.961Z,4.80
2022-11-12T07:15:53.489Z,4.80
2022-11-12T07:18:40.033Z,4.90
2022-11-12T07:21:26.641Z,4.80
2022-11-12T07:24:13.209Z,4.90
2022-11-12T07:27:00.952Z,4.90
2022-11-12T07:29:48.644Z,4.90
2022-11-12T07:32:39.942Z,4.90
2022-11-12T07:35:29.577Z,4.90
2022-11-12T07:38:15.979Z,4.90
2022-11-12T07:41:03.426Z,4.90
2022-11-12T07:43:53.028Z,4.90
2022-11-12T07:46:39.452Z,5.00
2022-11-12T07:49:25.970Z,5.00
2022-11-12T07:52:12.310Z,5.00
2022-11-12T07:54:58.832Z,5.00
2022-11-12T07:57:45.464Z,5.00
2022-11-12T08:00:33.097Z,5.00
2022-11-12T08:03:20.116Z,5.00
2022-11-12T08:06:07.287Z,5.10
2022-11-12T08:08:53.808Z,5.20
2022-11-12T08:11:41.967Z,5.20
2022-11-12T08:14:28.338Z,5.30
2022-11-12T08:17:15.985Z,5.40
2022-11-12T08:20:02.440Z,5.40
2022-11-12T08:22:49.631Z,5.50
2022-11-12T08:25:36.512Z,5.50
2022-11-12T08:28:23.240Z,5.50
2022-11-12T08:31:12.616Z,5.60
2022-11-12T08:34:11.817Z,5.70
2022-11-12T08:36:58.575Z,5.80
2022-11-12T08:39:44.866Z,5.90
2022-11-12T08:42:31.456Z,5.80
2022-11-12T08:45:17.887Z,5.80
2022-11-12T08:48:06.463Z,5.80
2022-11-12T08:50:54.322Z,5.80
2022-11-12T08:53:40.644Z,5.80
2022-11-12T08:56:26.960Z,5.90
2022-11-12T08:59:13.641Z,5.90
2022-11-12T09:02:00.336Z,5.90
2022-11-12T09:04:47.262Z,6.00
2022-11-12T09:07:49.423Z,6.00
2022-11-12T09:10:37.754Z,6.00
2022-11-12T09:13:24.179Z,6.10
2022-11-12T09:16:11.320Z,6.10
2022-11-12T09:18:58.186Z,6.20
2022-11-12T09:21:44.715Z,6.30
2022-11-12T09:24:32.657Z,6.50
2022-11-12T09:27:19.352Z,6.50
2022-11-12T09:30:06.597Z,6.50
2022-11-12T09:32:58.354Z,6.50
2022-11-12T09:35:45.511Z,6.60
2022-11-12T09:38:32.360Z,6.60
2022-11-12T09:41:32.192Z,6.70
2022-11-12T09:44:22.039Z,6.70
2022-11-12T09:47:15.476Z,6.70
2022-11-12T09:50:19.506Z,6.70
2022-11-12T09:53:13.240Z,6.80
2022-11-12T09:56:00.465Z,6.90
2022-11-12T09:58:48.539Z,7.00
2022-11-12T10:01:44.881Z,7.00
2022-11-12T10:04:52.581Z,7.10
2022-11-12T10:08:11.064Z,7.20
2022-11-12T10:11:05.633Z,7.30
2022-11-12T10:14:07.220Z,7.30
2022-11-12T10:17:01.459Z,7.20
2022-11-12T10:20:14.221Z,7.30
2022-11-12T10:23:14.584Z,7.20
2022-11-12T10:26:10.724Z,7.20
2022-11-12T10:29:04.109Z,7.20
2022-11-12T10:31:50.283Z,7.20
2022-11-12T10:34:36.624Z,7.20
2022-11-12T10:37:27.580Z,7.20
2022-11-12T10:40:33.915Z,7.10
2022-11-12T10:43:25.707Z,7.00
2022-11-12T10:46:21.013Z,7.00
2022-11-12T10:49:22.555Z,7.00
2022-11-12T10:52:22.028Z,7.10
2022-11-12T10:55:17.882Z,7.20
2022-11-12T10:58:16.459Z,7.10
2022-11-12T11:01:04.808Z,7.20
2022-11-12T11:03:58.035Z,7.30
2022-11-12T11:06:44.404Z,7.40
2022-11-12T11:09:31.396Z,7.40
2022-11-12T11:12:26.334Z,7.60
2022-11-12T11:15:21.161Z,7.50
2022-11-12T11:18:11.399Z,7.50
2022-11-12T11:21:09.261Z,7.50
2022-11-12T11:24:02.015Z,7.50
2022-11-12T11:26:59.000Z,7.60
2022-11-12T11:30:06.581Z,7.60
2022-11-12T11:33:18.226Z,7.60
2022-11-12T11:36:18.865Z,7.60
2022-11-12T11:39:18.802Z,7.60
2022-11-12T11:42:19.873Z,7.70
2022-11-12T11:45:16.205Z,7.70
2022-11-12T11:48:11.266Z,7.60
2022-11-12T11:51:03.484Z,7.70
2022-11-12T11:53:58.450Z,7.70
2022-11-12T11:56:46.096Z,7.70
2022-11-12T11:59:42.039Z,7.80
2022-11-12T12:02:44.576Z,7.90
2022-11-12T12:05:39.745Z,7.90
2022-11-12T12:08:37.104Z,8.00
2022-11-12T12:11:32.258Z,7.90
2022-11-12T12:14:35.076Z,7.90
2022-11-12T12:17:36.723Z,7.90
2022-11-12T12:20:30.148Z,7.80
2022-11-12T12:23:26.261Z,7.80
2022-11-12T12:26:18.420Z,7.80
2022-11-12T12:29:13.151Z,7.80
2022-11-12T12:32:06.247Z,7.80
2022-11-12T12:34:59.877Z,7.90
2022-11-12T12:37:53.897Z,7.90
2022-11-12T12:40:45.115Z,7.90
2022-11-12T12:43:38.482Z,7.90
2022-11-12T12:46:30.072Z,7.90
2022-11-12T12:49:20.283Z,7.90
2022-11-12T12:52:07.160Z,8.00
2022-11-12T12:54:58.439Z,7.90
2022-11-12T12:57:45.341Z,7.80
2022-11-12T13:00:39.312Z,7.70
2022-11-12T13:03:58.643Z,7.60
2022-11-12T13:06:54.862Z,7.60
2022-11-12T13:09:41.179Z,7.70
2022-11-12T13:13:01.009Z,7.70
2022-11-12T13:15:48.877Z,7.70
2022-11-12T13:18:59.031Z,7.80
2022-11-12T13:21:45.720Z,7.70
2022-11-12T13:25:10.920Z,7.70
2022-11-12T13:28:14.273Z,7.70
2022-11-12T13:31:03.451Z,7.70
2022-11-12T13:33:49.907Z,7.70
2022-11-12T13:36:38.362Z,7.80
2022-11-12T13:39:25.894Z,7.80
2022-11-12T13:42:33.427Z,7.80
2022-11-12T13:45:22.756Z,7.80
2022-11-12T13:48:13.251Z,7.80
2022-11-12T13:51:03.380Z,7.70
2022-11-12T13:53:51.330Z,7.60
2022-11-12T13:56:39.044Z,7.60
2022-11-12T13:59:27.204Z,7.50
2022-11-12T14:02:22.089Z,7.60
2022-11-12T14:05:15.506Z,7.60
2022-11-12T14:08:23.708Z,7.60
2022-11-12T14:11:38.515Z,7.60
2022-11-12T14:14:40.919Z,7.50
2022-11-12T14:17:38.456Z,7.50
2022-11-12T14:20:27.590Z,7.50
2022-11-12T14:23:21.585Z,7.50
2022-11-12T14:26:12.727Z,7.50
2022-11-12T14:29:00.693Z,7.50
2022-11-12T14:31:47.719Z,7.40
2022-11-12T14:34:35.696Z,7.50
2022-11-12T14:37:43.407Z,7.50
2022-11-12T14:40:32.001Z,7.50
2022-11-12T14:43:27.927Z,7.50
2022-11-12T14:46:25.424Z,7.40
2022-11-12T14:49:19.273Z,7.40
2022-11-12T14:52:10.459Z,7.40
2022-11-12T14:55:01.023Z,7.40
2022-11-12T14:57:48.263Z,7.40
2022-11-12T15:00:43.613Z,7.40
2022-11-12T15:03:35.245Z,7.40
2022-11-12T15:06:29.727Z,7.40
2022-11-12T15:09:21.778Z,7.40
2022-11-12T15:12:12.605Z,7.40
2022-11-12T15:15:11.240Z,7.30
2022-11-12T15:17:59.609Z,7.30
2022-11-12T15:21:03.111Z,7.30
2022-11-12T15:23:51.795Z,7.30
2022-11-12T15:26:42.623Z,7.20
2022-11-12T15:29:31.747Z,7.20
2022-11-12T15:32:33.973Z,7.20
2022-11-12T15:35:43.720Z,7.20
2022-11-12T15:38:37.813Z,7.20
2022-11-12T15:41:26.795Z,7.20
2022-11-12T15:44:13.914Z,7.10
2022-11-12T15:47:00.772Z,7.10
2022-11-12T15:49:51.828Z,7.10
2022-11-12T15:52:38.560Z,7.10
2022-11-12T15:55:26.468Z,7.10
2022-11-12T15:58:18.724Z,7.10
2022-11-12T16:01:06.293Z,7.10
2022-11-12T16:03:52.955Z,7.10
2022-11-12T16:06:39.978Z,7.10
2022-11-12T16:09:26.648Z,7.10
2022-11-12T16:12:15.678Z,7.10
2022-11-12T16:15:03.015Z,7.10
2022-11-12T16:17:50.129Z,7.10
2022-11-12T16:20:37.129Z,7.10
2022-11-12T16:23:23.684Z,7.10
2022-11-12T16:26:14.797Z,7.10
2022-11-12T16:29:02.642Z,7.10
2022-11-12T16:31:49.149Z,7.10
2022-11-12T16:34:35.429Z,7.10
2022-11-12T16:37:21.784Z,7.10
2022-11-12T16:40:13.254Z,7.10
2022-11-12T16:42:59.899Z,7.10
2022-11-12T16:45:47.682Z,7.10
2022-11-12T16:48:34.291Z,7.10
2022-11-12T16:51:22.240Z,7.00
2022-11-12T16:54:08.980Z,7.10
2022-11-12T16:56:55.239Z,7.00
2022-11-12T16:59:41.521Z,7.00
2022-11-12T17:02:29.199Z,7.10
2022-11-12T17:05:17.360Z,7.00
2022-11-12T17:08:04.116Z,7.10
2022-11-12T17:10:50.802Z,7.00
2022-11-12T17:13:38.563Z,7.00
2022-11-12T17:16:24.961Z,7.10
2022-11-12T17:19:12.953Z,7.10
2022-11-12T17:21:59.508Z,7.10
2022-11-12T17:24:45.944Z,7.10
2022-11-12T17:27:32.691Z,7.10
2022-11-12T17:30:19.503Z,7.10
2022-11-12T17:33:06.116Z,7.20
2022-11-12T17:35:53.936Z,7.20
2022-11-12T17:38:41.129Z,7.20
2022-11-12T17:41:29.336Z,7.30
2022-11-12T17:44:17.713Z,7.20
2022-11-12T17:47:04.505Z,7.20
2022-11-12T17:49:51.040Z,7.20
2022-11-12T17:52:38.870Z,7.30
2022-11-12T17:55:25.272Z,7.30
2022-11-12T17:58:11.882Z,7.30
2022-11-12T18:01:05.832Z,7.30
2022-11-12T18:03:54.601Z,7.30
2022-11-12T18:06:41.222Z,7.30
2022-11-12T18:09:29.278Z,7.30
2022-11-12T18:12:16.392Z,7.30
2022-11-12T18:15:02.751Z,7.30
2022-11-12T18:17:49.052Z,7.40
2022-11-12T18:20:36.799Z,7.40
2022-11-12T18:23:23.854Z,7.40
2022-11-12T18:26:14.951Z,7.40
2022-11-12T18:29:01.825Z,7.40
2022-11-12T18:31:49.631Z,7.40
2022-11-12T18:34:36.203Z,7.40
2022-11-12T18:37:23.051Z,7.50
2022-11-12T18:40:10.293Z,7.40
2022-11-12T18:42:58.055Z,7.40
2022-11-12T18:45:44.451Z,7.40
2022-11-12T18:48:32.973Z,7.50
2022-11-12T18:51:20.644Z,7.50
2022-11-12T18:54:07.528Z,7.50
2022-11-12T18:56:54.219Z,7.50
2022-11-12T18:59:41.876Z,7.50
2022-11-12T19:02:28.258Z,7.50
2022-11-12T19:05:14.781Z,7.50
2022-11-12T19:08:02.522Z,7.50
2022-11-12T19:10:49.111Z,7.50
2022-11-12T19:13:35.968Z,7.50
2022-11-12T19:16:24.336Z,7.50
2022-11-12T19:19:11.225Z,7.40
2022-11-12T19:21:57.560Z,7.50
2022-11-12T19:24:43.749Z,7.40
2022-11-12T19:27:30.205Z,7.40
2022-11-12T19:30:17.480Z,7.40
2022-11-12T19:33:05.673Z,7.40
2022-11-12T19:35:51.930Z,7.40
2022-11-12T19:38:38.233Z,7.40
2022-11-12T19:41:25.784Z,7.40
2022-11-12T19:44:12.118Z,7.30
2022-11-12T19:46:58.431Z,7.40
2022-11-12T19:49:46.245Z,7.30
2022-11-12T19:52:32.829Z,7.30
2022-11-12T19:55:19.283Z,7.30
2022-11-12T19:58:05.673Z,7.20
2022-11-12T20:00:52.058Z,7.30
2022-11-12T20:03:39.111Z,7.30
2022-11-12T20:06:29.277Z,7.30
2022-11-12T20:09:16.696Z,7.20
2022-11-12T20:12:03.270Z,7.20
2022-11-12T20:14:49.454Z,7.20
2022-11-12T20:17:37.109Z,7.10
2022-11-12T20:20:23.763Z,7.10
2022-11-12T20:23:11.424Z,7.10
2022-11-12T20:26:03.350Z,7.10
2022-11-12T20:28:50.184Z,7.10
2022-11-12T20:31:37.841Z,7.10
2022-11-12T20:34:24.363Z,7.10
2022-11-12T20:37:10.829Z,7.10
2022-11-12T20:39:58.884Z,7.00
2022-11-12T20:42:45.831Z,7.00
2022-11-12T20:45:32.784Z,6.90
2022-11-12T20:48:20.237Z,6.90
2022-11-12T20:51:23.368Z,6.90
2022-11-12T20:54:11.475Z,6.90
2022-11-12T20:57:01.051Z,6.90
2022-11-12T20:59:51.209Z,6.90
2022-11-12T21:02:38.014Z,6.90
2022-11-12T21:05:24.651Z,6.90
2022-11-12T21:08:11.621Z,6.90
2022-11-12T21:10:59.961Z,6.90
2022-11-12T21:13:47.743Z,6.90
2022-11-12T21:16:34.835Z,6.90
2022-11-12T21:19:21.334Z,6.80
2022-11-12T21:22:07.691Z,6.90
2022-11-12T21:24:54.209Z,6.80
2022-11-12T21:27:40.931Z,6.80
2022-11-12T21:30:28.531Z,6.80
2022-11-12T21:33:15.231Z,6.70
2022-11-12T21:36:01.945Z,6.80
2022-11-12T21:38:49.007Z,6.70
2022-11-12T21:41:35.641Z,6.70
2022-11-12T21:44:22.353Z,6.70
2022-11-12T21:47:10.132Z,6.70
2022-11-12T21:49:56.540Z,6.70
2022-11-12T21:52:43.083Z,6.70
2022-11-12T21:55:29.655Z,6.60
2022-11-12T21:58:15.949Z,6.60
2022-11-12T22:01:10.729Z,6.60
2022-11-12T22:03:59.773Z,6.60
2022-11-12T22:06:46.375Z,6.60
2022-11-12T22:09:33.612Z,6.60
2022-11-12T22:12:20.292Z,6.60
2022-11-12T22:15:07.806Z,6.60
2022-11-12T22:17:54.432Z,6.60
2022-11-12T22:20:42.200Z,6.60
2022-11-12T22:23:28.518Z,6.60
2022-11-12T22:26:16.747Z,6.60
2022-11-12T22:29:03.440Z,6.60
2022-11-12T22:31:49.727Z,6.60
2022-11-12T22:34:36.311Z,6.60
2022-11-12T22:37:24.080Z,6.50
2022-11-12T22:40:13.612Z,6.60
2022-11-12T22:43:00.428Z,6.60
2022-11-12T22:45:47.030Z,6.60
2022-11-12T22:48:33.601Z,6.70
2022-11-12T22:51:21.901Z,6.70
2022-11-12T22:54:15.551Z,6.60
2022-11-12T22:57:02.067Z,6.60
2022-11-12T22:59:48.521Z,6.60
2022-11-12T23:02:36.342Z,6.70
2022-11-12T23:05:22.778Z,6.60
2022-11-12T23:08:09.233Z,6.60
2022-11-12T23:10:56.993Z,6.60
2022-11-12T23:13:44.035Z,6.60
2022-11-12T23:16:31.592Z,6.60
2022-11-12T23:19:18.384Z,6.60
2022-11-12T23:22:07.917Z,6.50
2022-11-12T23:24:54.604Z,6.50
2022-11-12T23:27:42.471Z,6.50
2022-11-12T23:30:28.830Z,6.50
2022-11-12T23:33:15.102Z,6.50
2022-11-12T23:36:05.679Z,6.50
2022-11-12T23:38:52.838Z,6.40
2022-11-12T23:41:39.298Z,6.40
2022-11-12T23:44:27.774Z,6.50
2022-11-12T23:47:14.412Z,6.40
2022-11-12T23:50:00.949Z,6.40
2022-11-12T23:52:47.429Z,6.40
2022-11-12T23:55:38.408Z,6.50
2022-11-12T23:58:25.671Z,6.40
